createdAt,value
2018-02-22T00:00:30.016Z,-4.70
2018-02-22T00:05:13.363Z,-5.00
2018-02-22T00:09:56.960Z,-5.30
2018-02-22T00:14:40.263Z,-5.50
2018-02-22T00:19:24.387Z,-6.00
2018-02-22T00:24:08.563Z,-6.10
2018-02-22T00:28:51.918Z,-6.10
2018-02-22T00:33:35.293Z,-6.20
2018-02-22T00:38:18.655Z,-6.30
2018-02-22T00:43:01.981Z,-6.40
2018-02-22T00:47:45.568Z,-6.50
2018-02-22T00:52:28.886Z,-6.60
2018-02-22T00:57:12.266Z,-6.60
2018-02-22T01:01:55.623Z,-6.50
2018-02-22T01:06:38.976Z,-6.50
2018-02-22T01:11:22.411Z,-6.30
2018-02-22T01:16:05.890Z,-6.30
2018-02-22T01:20:49.527Z,-6.30
2018-02-22T01:25:32.904Z,-6.30
2018-02-22T01:30:16.297Z,-6.40
2018-02-22T01:34:59.613Z,-6.50
2018-02-22T01:39:44.714Z,-6.70
2018-02-22T01:44:28.108Z,-6.70
2018-02-22T01:49:11.479Z,-6.70
2018-02-22T01:53:55.883Z,-6.70
2018-02-22T01:58:39.256Z,-6.70
2018-02-22T02:03:22.620Z,-6.70
2018-02-22T02:08:06.038Z,-6.70
2018-02-22T02:12:49.396Z,-6.70
2018-02-22T02:17:33.533Z,-6.90
2018-02-22T02:22:16.919Z,-6.90
2018-02-22T02:27:00.276Z,-6.90
2018-02-22T02:31:43.905Z,-6.80
2018-02-22T02:36:28.000Z,-6.90
2018-02-22T02:41:11.367Z,-6.80
2018-02-22T02:45:54.763Z,-6.90
2018-02-22T02:50:38.136Z,-6.90
2018-02-22T02:55:21.483Z,-7.00
2018-02-22T03:00:05.773Z,-6.90
2018-02-22T03:04:50.182Z,-6.90
2018-02-22T03:09:33.514Z,-6.90
2018-02-22T03:14:16.887Z,-7.10
2018-02-22T03:19:00.222Z,-7.00
2018-02-22T03:23:43.620Z,-7.00
2018-02-22T03:28:27.774Z,-7.20
2018-02-22T03:33:11.206Z,-7.30
2018-02-22T03:37:55.334Z,-7.10
2018-02-22T03:42:38.672Z,-7.10
2018-02-22T03:47:22.913Z,-7.10
2018-02-22T03:52:06.287Z,-7.00
2018-02-22T03:56:49.675Z,-7.00
2018-02-22T04:01:33.012Z,-7.00
2018-02-22T04:06:16.366Z,-7.00
2018-02-22T04:10:59.747Z,-7.00
2018-02-22T04:15:43.044Z,-7.10
2018-02-22T04:20:27.135Z,-7.20
2018-02-22T04:25:10.597Z,-7.30
2018-02-22T04:29:53.963Z,-7.60
2018-02-22T04:34:38.331Z,-7.60
2018-02-22T04:39:22.397Z,-7.40
2018-02-22T04:44:05.844Z,-7.50
2018-02-22T04:48:50.296Z,-7.30
2018-02-22T04:53:34.597Z,-7.60
2018-02-22T04:58:17.934Z,-7.60
2018-02-22T05:03:02.380Z,-7.70
2018-02-22T05:07:46.221Z,-7.70
2018-02-22T05:12:29.550Z,-7.70
2018-02-22T05:17:12.947Z,-7.60
2018-02-22T05:21:56.276Z,-7.60
2018-02-22T05:26:39.684Z,-7.70
2018-02-22T05:31:23.025Z,-7.80
2018-02-22T05:36:06.661Z,-7.70
2018-02-22T05:40:49.980Z,-7.60
2018-02-22T05:45:33.316Z,-7.70
2018-02-22T05:50:16.664Z,-7.70
2018-02-22T05:55:00.040Z,-7.60
2018-02-22T05:59:43.459Z,-7.40
2018-02-22T06:04:26.826Z,-7.40
2018-02-22T06:09:10.162Z,-7.50
2018-02-22T06:13:53.509Z,-7.50
2018-02-22T06:18:36.871Z,-7.40
2018-02-22T06:23:20.251Z,-7.30
2018-02-22T06:28:03.884Z,-7.30
2018-02-22T06:32:47.198Z,-7.20
2018-02-22T06:37:30.592Z,-7.10
2018-02-22T06:42:13.933Z,-7.10
2018-02-22T06:46:58.040Z,-6.90
2018-02-22T06:51:41.394Z,-6.90
2018-02-22T06:56:24.756Z,-6.70
2018-02-22T07:01:08.105Z,-6.50
2018-02-22T07:05:51.504Z,-6.40
2018-02-22T07:10:34.892Z,-6.20
2018-02-22T07:15:19.097Z,-5.90
2018-02-22T07:20:02.421Z,-5.90
2018-02-22T07:24:46.573Z,-5.70
2018-02-22T07:29:30.291Z,-5.70
2018-02-22T07:34:13.749Z,-5.50
2018-02-22T07:38:59.850Z,-5.40
2018-02-22T07:43:43.327Z,-5.20
2018-02-22T07:48:26.796Z,-5.00
2018-02-22T07:53:10.340Z,-4.90
2018-02-22T07:57:54.005Z,-4.60
2018-02-22T08:02:37.358Z,-4.40
2018-02-22T08:07:20.958Z,-4.30
2018-02-22T08:12:04.358Z,-4.20
2018-02-22T08:16:47.792Z,-4.00
2018-02-22T08:21:31.144Z,-3.70
2018-02-22T08:26:15.277Z,-3.40
2018-02-22T08:30:58.649Z,-3.40
2018-02-22T08:35:42.852Z,-3.00
2018-02-22T08:40:26.230Z,-3.00
2018-02-22T08:45:09.627Z,-2.90
2018-02-22T08:49:53.019Z,-2.60
2018-02-22T08:54:36.519Z,-2.40
2018-02-22T08:59:21.608Z,-2.20
2018-02-22T09:04:05.126Z,-1.90
2018-02-22T09:08:48.835Z,-1.70
2018-02-22T09:13:32.253Z,-1.70
2018-02-22T09:18:18.608Z,-1.20
2018-02-22T09:23:03.540Z,-1.30
2018-02-22T09:27:47.969Z,-0.90
2018-02-22T09:32:31.369Z,-0.70
2018-02-22T09:37:15.616Z,-0.30
2018-02-22T09:41:59.066Z,-0.30
2018-02-22T09:46:42.495Z,0.10
2018-02-22T09:51:25.939Z,0.30
2018-02-22T09:56:09.390Z,0.60
2018-02-22T10:00:52.729Z,0.80
2018-02-22T10:05:41.848Z,1.00
2018-02-22T10:10:25.385Z,1.10
2018-02-22T10:15:10.400Z,1.10
2018-02-22T10:19:53.875Z,1.00
2018-02-22T10:24:37.364Z,0.90
2018-02-22T10:29:21.536Z,0.90
2018-02-22T10:34:04.899Z,0.90
2018-02-22T10:38:48.450Z,1.00
2018-02-22T10:43:32.050Z,0.90
2018-02-22T10:48:16.130Z,0.40
2018-02-22T10:52:59.466Z,0.40
2018-02-22T10:57:42.863Z,0.20
2018-02-22T11:02:31.941Z,0.50
2018-02-22T11:07:16.330Z,0.60
2018-02-22T11:11:59.749Z,0.60
2018-02-22T11:16:43.890Z,0.90
2018-02-22T11:21:28.068Z,1.00
2018-02-22T11:26:13.823Z,1.00
2018-02-22T11:30:58.784Z,1.00
2018-02-22T11:35:42.998Z,1.20
2018-02-22T11:40:26.449Z,1.10
2018-02-22T11:45:10.557Z,1.00
2018-02-22T11:49:54.043Z,1.00
2018-02-22T11:59:35.711Z,1.50
2018-02-22T12:04:20.525Z,2.00
2018-02-22T12:09:07.288Z,1.90
2018-02-22T12:13:51.102Z,2.10
2018-02-22T12:18:36.544Z,2.20
2018-02-22T12:23:22.915Z,2.60
2018-02-22T12:28:07.238Z,2.70
2018-02-22T12:32:51.367Z,3.10
2018-02-22T12:37:35.859Z,3.10
2018-02-22T12:42:19.297Z,3.60
2018-02-22T12:47:06.000Z,3.80
2018-02-22T12:51:50.438Z,4.60
2018-02-22T12:56:46.292Z,4.60
2018-02-22T13:01:30.053Z,4.10
2018-02-22T13:06:14.188Z,3.60
2018-02-22T13:10:57.673Z,3.50
2018-02-22T13:15:43.863Z,3.50
2018-02-22T13:20:51.556Z,2.70
2018-02-22T13:32:07.915Z,1.80
2018-02-22T13:36:52.241Z,1.80
2018-02-22T13:41:35.636Z,2.00
2018-02-22T13:46:20.487Z,2.40
2018-02-22T13:56:47.060Z,2.90
2018-02-22T14:01:47.115Z,2.90
2018-02-22T14:06:57.312Z,3.10
2018-02-22T14:11:48.453Z,2.90
2018-02-22T14:21:56.847Z,3.10
2018-02-22T14:26:41.966Z,2.90
2018-02-22T14:31:29.918Z,2.80
2018-02-22T14:36:18.352Z,2.40
2018-02-22T14:41:10.344Z,2.30
2018-02-22T14:45:55.496Z,2.30
2018-02-22T14:50:43.765Z,2.30
2018-02-22T14:55:32.336Z,2.20
2018-02-22T15:05:14.488Z,2.00
2018-02-22T15:10:01.318Z,1.90
2018-02-22T15:14:54.062Z,1.00
2018-02-22T15:19:38.506Z,1.00
2018-02-22T15:24:21.937Z,0.80
2018-02-22T15:29:18.510Z,0.60
2018-02-22T15:34:01.860Z,0.50
2018-02-22T15:38:45.177Z,0.40
2018-02-22T15:43:30.046Z,0.30
2018-02-22T15:48:13.455Z,0.20
2018-02-22T15:53:13.650Z,0.00
2018-02-22T15:57:57.395Z,0.00
2018-02-22T16:02:40.933Z,-0.10
2018-02-22T16:07:25.521Z,-0.40
2018-02-22T16:12:09.558Z,-0.40
2018-02-22T16:16:54.659Z,-0.70
2018-02-22T16:21:38.902Z,-0.70
2018-02-22T16:26:24.825Z,-0.70
2018-02-22T16:31:09.441Z,-0.80
2018-02-22T16:35:53.310Z,-0.90
2018-02-22T16:45:32.205Z,-1.10
2018-02-22T16:56:15.068Z,-1.30
2018-02-22T17:01:00.729Z,-1.30
2018-02-22T17:06:00.429Z,-1.20
2018-02-22T17:15:53.406Z,-1.40
2018-02-22T17:20:40.164Z,-1.40
2018-02-22T17:30:52.077Z,-1.30
2018-02-22T17:35:42.127Z,-1.20
2018-02-22T17:45:51.534Z,-1.30
2018-02-22T17:50:36.602Z,-1.40
2018-02-22T17:55:20.774Z,-1.60
2018-02-22T18:00:05.239Z,-1.80
2018-02-22T18:04:49.552Z,-1.80
2018-02-22T18:09:33.419Z,-1.90
2018-02-22T18:14:16.979Z,-2.10
2018-02-22T18:19:01.918Z,-2.30
2018-02-22T18:23:49.782Z,-2.30
2018-02-22T18:28:33.963Z,-2.40
2018-02-22T18:33:20.326Z,-2.50
2018-02-22T18:43:14.773Z,-2.60
2018-02-22T18:48:03.467Z,-2.50
2018-02-22T18:52:47.870Z,-2.50
2018-02-22T18:57:58.940Z,-2.50
2018-02-22T19:02:56.279Z,-2.50
2018-02-22T19:07:43.149Z,-2.60
2018-02-22T19:12:28.982Z,-2.60
2018-02-22T19:17:13.235Z,-2.70
2018-02-22T19:21:56.809Z,-2.70
2018-02-22T19:26:41.019Z,-2.80
2018-02-22T19:31:25.265Z,-2.90
2018-02-22T19:36:08.698Z,-2.80
2018-02-22T19:40:53.818Z,-2.90
2018-02-22T19:45:37.230Z,-3.00
2018-02-22T19:50:20.854Z,-3.00
2018-02-22T19:55:06.360Z,-3.00
2018-02-22T19:59:52.356Z,-3.20
2018-02-22T20:04:35.937Z,-3.20
2018-02-22T20:09:19.439Z,-3.20
2018-02-22T20:14:02.889Z,-3.30
2018-02-22T20:18:46.258Z,-3.20
2018-02-22T20:23:29.937Z,-3.30
2018-02-22T20:28:13.356Z,-3.30
2018-02-22T20:32:56.816Z,-3.40
2018-02-22T20:37:40.568Z,-3.40
2018-02-22T20:42:24.034Z,-3.40
2018-02-22T20:47:08.313Z,-3.60
2018-02-22T20:51:52.042Z,-3.60
2018-02-22T20:56:35.865Z,-3.70
2018-02-22T21:01:19.317Z,-3.60
2018-02-22T21:06:02.880Z,-3.80
2018-02-22T21:10:47.017Z,-3.80
2018-02-22T21:15:31.267Z,-3.80
2018-02-22T21:20:14.787Z,-3.80
2018-02-22T21:24:58.902Z,-3.90
2018-02-22T21:29:42.305Z,-3.90
2018-02-22T21:40:12.351Z,-3.90
2018-02-22T21:44:55.764Z,-3.90
2018-02-22T21:49:40.102Z,-4.10
2018-02-22T21:54:23.602Z,-4.20
2018-02-22T21:59:06.973Z,-4.10
2018-02-22T22:03:50.396Z,-4.30
2018-02-22T22:08:33.844Z,-4.20
2018-02-22T22:13:17.186Z,-4.20
2018-02-22T22:18:00.618Z,-4.30
2018-02-22T22:22:43.953Z,-4.30
2018-02-22T22:27:27.428Z,-4.30
2018-02-22T22:32:10.840Z,-4.30
2018-02-22T22:36:54.532Z,-4.40
2018-02-22T22:41:37.869Z,-4.40
2018-02-22T22:46:21.222Z,-4.40
2018-02-22T22:51:05.493Z,-4.60
2018-02-22T22:55:49.672Z,-4.60
2018-02-22T23:00:33.034Z,-4.60
2018-02-22T23:05:16.684Z,-4.60
2018-02-22T23:10:00.152Z,-4.70
2018-02-22T23:14:43.506Z,-4.90
2018-02-22T23:19:26.892Z,-4.90
2018-02-22T23:24:10.279Z,-4.90
2018-02-22T23:28:53.652Z,-4.80
2018-02-22T23:33:36.985Z,-4.90
2018-02-22T23:38:21.185Z,-4.90
2018-02-22T23:43:04.570Z,-5.00
2018-02-22T23:47:47.895Z,-5.10
2018-02-22T23:52:31.299Z,-5.30
2018-02-22T23:57:14.713Z,-5.40
